Latest Coastal Weather Observations for Cape Otway

IDT60701

Issued at 9:41 pm EDT Sunday 29 March 2015 (issued every 10 minutes, with the page automatically refreshed every 10 minutes)

About coastal observations | Map of coastal stations | Coastal observations for TAS | Marine services | Other Formats
Station Details ID: 090015 Name: CAPE OTWAY LIGHTHOUSE Lat: -38.86 Lon: 143.51 Height: 82.0 m
Data from the previous 72 hours. | See also: Recent months at Cape Otway
Date/Time
EDT
Temp

°C
Wind Pressure Rain
since 9am
mm
Weather Cloud Vis
km
Sea
Height
m
Swell
Dir
 
Speed
knots
Gust
knots
hPa Trend Height
m
Period
s
Dir
29/09:30pm 13.7 NNW 7 8 1023.1 - 0.0 - - - - - - -
29/09:00pm 15.6 WNW 8 10 1022.8 - 0.0 - - - - - - -
29/08:30pm 15.7 WNW 8 12 1022.7 - 0.0 - - - - - - -
29/08:00pm 15.7 WNW 9 11 1022.7 - 0.0 - - - - - - -
29/07:30pm 15.9 W 8 11 1022.4 - 0.0 - - - - - - -
29/07:00pm 16.5 W 11 14 1022.1 - 0.0 - - - - - - -
29/06:30pm 16.9 W 10 14 1021.7 - 0.0 - - - - - - -
29/06:00pm 17.3 W 12 15 1021.4 - 0.0 - - - - - - -
29/05:30pm 17.4 W 12 16 1021.5 - 0.0 - - - - - - -
29/05:00pm 17.6 W 11 15 1021.5 - 0.0 - - - - - - -
29/04:30pm 17.5 W 12 16 1021.4 - 0.0 - - - - - - -
29/04:00pm 17.8 W 13 18 1021.4 - 0.0 - - - - - - -
29/03:30pm 17.7 W 15 20 1021.5 - 0.0 - - - - - - -
29/03:00pm 17.4 W 16 21 1021.4 - 0.0 - - - - - - -
29/02:30pm 17.7 W 15 20 1021.5 - 0.0 - - - - - - -
29/02:00pm 17.7 W 14 20 1021.7 - 0.0 - - - - - - -
29/01:30pm 17.5 W 13 19 1021.8 - 0.0 - - - - - - -
29/01:00pm 18.1 WNW 12 17 1022.0 - 0.0 - - - - - - -
29/12:30pm 17.7 WNW 13 17 1022.0 - 0.0 - - - - - - -
29/12:00pm 17.7 WNW 13 18 1022.0 - 0.0 - - - - - - -
29/11:30am 17.4 WNW 12 17 1022.2 - 0.0 - - - - - - -
29/11:00am 16.9 WNW 10 15 1022.2 - 0.0 - - - - - - -
29/10:30am 16.5 WNW 11 17 1022.2 - 0.0 - - - - - - -
29/10:00am 16.0 NW 11 16 1022.1 - 0.0 - - - - - - -
29/09:30am 15.1 NW 9 14 1021.9 - 0.0 - - - - - - -
29/09:00am 14.4 NW 9 13 1021.6 - 0.0 - - - - - - -
29/08:30am 12.9 NNW 9 12 1021.6 - 0.0 - - - - - - -
29/08:00am 11.7 N 10 12 1021.4 - 0.0 - - - - - - -
29/07:30am 11.5 NNW 9 12 1021.3 - 0.0 - - - - - - -
29/07:00am 12.0 NNW 8 11 1021.4 - 0.0 - - - - - - -
29/06:30am 11.9 NW 8 10 1021.2 - 0.0 - - - - - - -
29/06:00am 10.8 NW 7 8 1020.8 - 0.0 - - - - - - -
29/05:30am 10.7 NW 7 8 1020.7 - 0.0 - - - - - - -
29/05:00am 11.5 NW 6 8 1020.5 - 0.0 - - - - - - -
29/04:30am 11.0 NNW 7 9 1019.9 - 0.0 - - - - - - -
29/04:00am 11.4 NNW 7 9 1020.0 - 0.0 - - - - - - -
29/03:30am 11.4 NNW 8 9 1020.2 - 0.0 - - - - - - -
29/03:00am 11.4 NNW 8 9 1020.2 - 0.0 - - - - - - -
29/02:30am 11.5 NNW 8 10 1020.5 - 0.0 - - - - - - -
29/02:00am 11.4 NNW 8 9 1020.7 - 0.0 - - - - - - -
29/01:30am 11.7 NNW 8 9 1021.1 - 0.0 - - - - - - -
29/01:00am 11.9 NNW 8 10 1021.4 - 0.0 - - - - - - -
29/12:30am 12.1 NNW 8 11 1021.6 - 0.0 - - - - - - -
29/12:00am 11.8 NNW 7 9 1021.8 - 0.0 - - - - - - -
 
Date/Time
EDT
Temp

°C
Wind Pressure Rain
since 9am
mm
Weather Cloud Vis
km
Sea
Height
m
Swell
Dir
 
Speed
knots
Gust
knots
hPa Trend Height
m
Period
s
Dir
28/11:30pm 12.6 NNW 6 7 1022.1 - 0.0 - - - - - - -
28/11:00pm 13.0 NNW 6 7 1022.4 - 0.0 - - - - - - -
28/10:30pm 13.0 NNW 6 7 1022.4 - 0.0 - - - - - - -
28/10:00pm 12.7 NNW 6 7 1022.5 - 0.0 - - - - - - -
28/09:30pm 13.1 N 6 7 1022.5 - 0.0 - - - - - - -
28/09:00pm 13.2 NNW 5 6 1022.4 - 0.0 - - - - - - -
28/08:30pm 13.4 N 4 5 1022.4 - 0.0 - - - - - - -
28/08:00pm 13.7 NNW 4 6 1022.3 - 0.0 - - - - - - -
28/07:30pm 14.0 WNW 6 9 1022.2 - 0.0 - - - - - - -
28/07:00pm 13.8 WNW 7 10 1022.3 - 0.0 - - - - - - -
28/06:30pm 13.9 W 7 9 1022.2 - 0.0 - - - - - - -
28/06:00pm 14.0 W 7 10 1022.2 - 0.0 - - - - - - -
28/05:30pm 14.0 W 7 11 1022.5 - 0.0 - - - - - - -
28/05:00pm 13.9 W 10 13 1022.8 - 0.0 - - - - - - -
28/04:30pm 14.2 W 10 14 1023.1 - 0.0 - - - - - - -
28/04:00pm 13.7 W 8 12 1023.2 - 0.0 - - - - - - -
28/03:30pm 13.6 W 8 13 1023.5 - 0.0 - - - - - - -
28/03:00pm 13.4 W 11 16 1023.5 - 0.0 - - - - - - -
28/02:30pm 13.8 W 11 16 1023.7 - 0.0 - - - - - - -
28/02:00pm 13.9 W 10 15 1024.0 - 0.0 - - - - - - -
28/01:30pm 14.2 WNW 10 14 1024.5 - 0.0 - - - - - - -
28/01:00pm 16.0 WNW 9 15 1024.6 - 0.0 - - - - - - -
28/12:30pm 14.9 W 10 15 1025.0 - 0.0 - - - - - - -
28/12:00pm 15.6 W 8 13 1025.1 - 0.0 - - - - - - -
28/11:30am 15.1 W 9 12 1025.4 - 0.0 - - - - - - -
28/11:00am 14.8 WNW 9 13 1025.5 - 0.0 - - - - - - -
28/10:30am 13.6 NW 9 12 1025.7 - 0.0 - - - - - - -
28/10:00am 13.1 NNW 10 14 1025.8 - 0.0 - - - - - - -
28/09:30am 12.2 NNW 8 12 1025.7 - 0.0 - - - - - - -
28/09:00am 12.4 NW 8 12 1025.5 - 0.2 - - - - - - -
28/08:30am 12.1 NNW 6 9 1025.1 - 0.0 - - - - - - -
28/08:00am 11.6 NNW 8 10 1025.0 - 0.0 - - - - - - -
28/07:30am 12.1 N 7 12 1024.8 - 0.0 - - - - - - -
28/07:00am 13.2 W 8 11 1024.6 - 0.0 - - - - - - -
28/06:30am 12.6 WSW 9 14 1024.4 - 0.0 - - - - - - -
28/06:00am 12.8 WSW 11 15 1024.2 - 0.0 - - - - - - -
28/05:30am 13.0 WSW 6 9 1024.3 - 0.0 - - - - - - -
28/05:00am 13.0 WSW 9 13 1024.3 - 0.0 - - - - - - -
28/04:30am 13.5 WSW 9 15 1024.2 - 0.0 - - - - - - -
28/04:00am 13.2 SSW 6 9 1024.3 - 0.0 - - - - - - -
28/03:30am 13.6 SW 10 14 1024.4 - 0.0 - - - - - - -
28/03:00am 13.5 SW 11 15 1024.6 - 0.0 - - - - - - -
28/02:30am 13.5 WSW 11 15 1024.8 - 0.0 - - - - - - -
28/02:00am 13.4 SW 12 16 1024.9 - 0.0 - - - - - - -
28/01:30am 12.9 WSW 10 16 1025.0 - 0.0 - - - - - - -
28/01:00am 12.5 WSW 8 11 1025.3 - 0.0 - - - - - - -
28/12:30am 12.8 WSW 11 15 1025.3 - 0.0 - - - - - - -
28/12:00am 12.6 SW 8 12 1025.4 - 0.0 - - - - - - -
 
Date/Time
EDT
Temp

°C
Wind Pressure Rain
since 9am
mm
Weather Cloud Vis
km
Sea
Height
m
Swell
Dir
 
Speed
knots
Gust
knots
hPa Trend Height
m
Period
s
Dir
27/11:30pm 12.6 SSW 12 15 1025.6 - 0.0 - - - - - - -
27/11:00pm 13.4 SW 11 16 1025.6 - 0.0 - - - - - - -
27/10:30pm 13.7 SSW 13 18 1025.6 - 0.0 - - - - - - -
27/10:00pm 14.0 SW 12 18 1025.5 - 0.0 - - - - - - -
27/09:30pm 14.0 SW 16 22 1025.4 - 0.0 - - - - - - -
27/09:00pm 14.2 SW 13 17 1025.1 - 0.0 - - - - - - -
27/08:30pm 14.0 SW 15 20 1025.1 - 0.0 - - - - - - -
27/08:00pm 13.9 SW 15 21 1024.8 - 0.0 - - - - - - -
27/07:30pm 13.9 SW 15 22 1024.5 - 0.0 - - - - - - -
27/07:00pm 14.1 SW 17 24 1024.3 - 0.0 - - - - - - -
27/06:30pm 14.0 SW 15 21 1024.1 - 0.0 - - - - - - -
27/06:00pm 14.2 SW 19 23 1023.8 - 0.0 - - - - - - -
27/05:30pm 14.5 SW 17 24 1023.7 - 0.0 - - - - - - -
27/05:00pm 14.6 WSW 17 23 1023.6 - 0.0 - - - - - - -
27/04:30pm 14.2 WSW 15 21 1023.6 - 0.0 - - - - - - -
27/04:00pm 14.3 SW 18 24 1023.7 - 0.0 - - - - - - -
27/03:46pm 14.3 SW 20 25 1023.6 - 0.0 - - - - - - -
27/03:30pm 14.1 W 14 18 1023.8 - 0.0 - - - - - - -
27/03:00pm 13.5 W 14 18 1023.9 - 0.0 - - - - - - -
27/02:30pm 14.5 WSW 15 23 1024.0 - 0.0 - - - - - - -
27/02:00pm 14.8 SW 16 20 1024.2 - 0.0 - - - - - - -
27/01:30pm 14.4 WSW 16 22 1024.2 - 0.0 - - - - - - -
27/01:00pm 14.4 WSW 16 22 1024.3 - 0.0 - - - - - - -
27/12:30pm 14.4 WSW 15 22 1024.3 - 0.0 - - - - - - -
27/12:24pm 14.4 WSW 16 26 1024.3 - 0.0 - - - - - - -
27/12:00pm 14.3 SW 19 26 1024.1 - 0.0 - - - - - - -
27/11:30am 13.7 WSW 21 27 1024.0 - 0.0 - - - - - - -
27/11:00am 13.7 WSW 22 30 1023.9 - 0.0 - - - - - - -
27/10:31am 13.4 SW 23 34 1023.6 - 0.0 - - - - - - -
27/10:30am 13.6 WSW 23 31 1023.6 - 0.0 - - - - - - -
27/10:15am 13.7 WSW 22 32 1023.5 - 0.0 - - - - - - -
27/10:00am 13.4 SW 25 33 1023.2 - 0.0 - - - - - - -
27/09:45am 13.6 WSW 25 35 1023.0 - 0.0 - - - - - - -
27/09:30am 13.7 WSW 24 31 1022.7 - 0.0 - - - - - - -
27/09:03am 13.4 WSW 24 34 1022.8 - 0.0 - - - - - - -
27/09:00am 13.2 WSW 24 33 1022.6 - 7.2 - - - - - - -
27/08:39am 13.4 SW 25 37 1022.4 - 7.2 - - - - - - -
27/08:30am 13.5 WSW 25 33 1022.4 - 7.2 - - - - - - -
27/08:16am 13.5 WSW 23 33 1022.2 - 7.2 - - - - - - -
27/08:00am 13.7 WSW 24 33 1021.9 - 7.2 - - - - - - -
27/07:31am 13.4 WSW 25 35 1021.6 - 7.2 - - - - - - -
27/07:30am 13.3 WSW 26 35 1021.5 - 7.2 - - - - - - -
27/07:00am 13.4 WSW 26 34 1021.1 - 7.2 - - - - - - -
27/06:33am 13.6 WSW 23 33 1020.8 - 7.2 - - - - - - -
27/06:30am 13.6 WSW 24 32 1020.7 - 7.2 - - - - - - -
27/06:04am 13.4 SW 27 40 1020.3 - 7.2 - - - - - - -
27/06:00am 13.4 SW 27 35 1020.1 - 7.2 - - - - - - -
27/05:43am 13.7 SW 25 35 1020.2 - 7.2 - - - - - - -
27/05:30am 13.7 SW 26 34 1019.9 - 7.2 - - - - - - -
27/05:00am 13.8 WSW 28 40 1019.6 - 7.2 - - - - - - -
27/04:30am 13.5 SW 25 35 1019.4 - 7.2 - - - - - - -
27/04:00am 13.7 WSW 27 37 1019.3 - 7.2 - - - - - - -
27/03:30am 13.1 WSW 26 37 1019.2 - 7.0 - - - - - - -
27/03:23am 14.1 WSW 25 36 1019.1 - 7.0 - - - - - - -
27/03:00am 13.9 WSW 25 33 1019.1 - 7.0 - - - - - - -
27/02:40am 14.0 WSW 22 34 1019.0 - 7.0 - - - - - - -
27/02:30am 13.7 WSW 24 33 1019.0 - 7.0 - - - - - - -
27/02:00am 13.3 SW 20 31 1019.0 - 7.0 - - - - - - -
27/01:30am 12.3 SW 21 31 1019.1 - 6.8 - - - - - - -
27/01:13am 14.6 SW 26 39 1018.7 - 6.2 - - - - - - -
27/01:00am 14.3 WSW 25 32 1018.6 - 6.2 - - - - - - -
27/12:41am 14.2 SW 22 33 1018.8 - 6.2 - - - - - - -
27/12:30am 14.0 WSW 25 34 1018.8 - 6.2 - - - - - - -
27/12:00am 13.9 SW 27 37 1018.3 - 6.2 - - - - - - -
 
Date/Time
EDT
Temp

°C
Wind Pressure Rain
since 9am
mm
Weather Cloud Vis
km
Sea
Height
m
Swell
Dir
 
Speed
knots
Gust
knots
hPa Trend Height
m
Period
s
Dir
26/11:30pm 13.5 WSW 26 38 1017.8 - 6.2 - - - - - - -
26/11:02pm 14.4 W 22 32 1017.4 - 5.2 - - - - - - -
26/11:00pm 14.3 W 23 32 1017.4 - 5.2 - - - - - - -
26/10:39pm 14.5 W 20 32 1017.4 - 5.2 - - - - - - -
26/10:30pm 14.2 WSW 21 29 1017.5 - 5.2 - - - - - - -
26/10:08pm 14.3 WSW 21 31 1017.4 - 5.2 - - - - - - -
26/10:00pm 14.4 WSW 21 30 1017.3 - 5.2 - - - - - - -

Other Formats:

Comma delimited format used in spreadsheet applications
http://www.bom.gov.au/fwo/IDT60701/IDT60701.94842.axf

JavaScript Object Notation format (JSON) in row-major order
http://www.bom.gov.au/fwo/IDT60701/IDT60701.94842.json